createdAt,value
2023-04-02T00:01:26.745Z,5.40
2023-04-02T00:04:04.104Z,5.55
2023-04-02T00:06:34.340Z,6.20
2023-04-02T00:09:17.777Z,7.63
2023-04-02T00:11:46.564Z,5.65
2023-04-02T00:14:30.755Z,6.82
2023-04-02T00:17:00.524Z,6.72
2023-04-02T00:19:30.665Z,6.80
2023-04-02T00:21:58.591Z,7.38
2023-04-02T00:24:25.946Z,8.35
2023-04-02T00:26:54.526Z,7.28
2023-04-02T00:29:22.087Z,5.15
2023-04-02T00:31:50.541Z,7.18
2023-04-02T00:34:26.594Z,5.07
2023-04-02T00:36:54.333Z,6.78
2023-04-02T00:39:24.380Z,7.05
2023-04-02T00:41:54.682Z,8.13
2023-04-02T00:44:23.863Z,8.13
2023-04-02T00:46:51.948Z,8.05
2023-04-02T00:49:24.936Z,7.25
2023-04-02T00:51:54.481Z,5.50
2023-04-02T00:54:23.302Z,6.53
2023-04-02T00:56:52.901Z,5.45
2023-04-02T00:59:21.804Z,8.20
2023-04-02T01:01:54.444Z,6.05
2023-04-02T01:04:34.311Z,4.90
2023-04-02T01:07:05.276Z,5.53
2023-04-02T01:09:47.702Z,5.88
2023-04-02T01:12:25.222Z,4.55
2023-04-02T01:15:01.408Z,6.05
2023-04-02T01:17:49.087Z,6.10
2023-04-02T01:20:19.563Z,5.72
2023-04-02T01:22:55.269Z,6.82
2023-04-02T01:25:28.461Z,5.65
2023-04-02T01:28:04.949Z,7.15
2023-04-02T01:30:33.786Z,7.25
2023-04-02T01:33:01.303Z,5.70
2023-04-02T01:35:31.105Z,4.95
2023-04-02T01:38:04.844Z,7.47
2023-04-02T01:40:32.337Z,5.22
2023-04-02T01:43:05.551Z,5.45
2023-04-02T01:45:35.181Z,5.18
2023-04-02T01:48:06.466Z,5.28
2023-04-02T01:50:39.287Z,5.45
2023-04-02T01:53:08.870Z,5.25
2023-04-02T01:55:41.472Z,5.30
2023-04-02T01:58:10.056Z,7.40
2023-04-02T02:00:38.364Z,6.22
2023-04-02T02:03:06.372Z,5.88
2023-04-02T02:05:33.890Z,7.00
2023-04-02T02:08:01.558Z,5.30
2023-04-02T02:10:30.345Z,5.47
2023-04-02T02:13:00.289Z,7.18
2023-04-02T02:15:27.929Z,5.40
2023-04-02T02:18:06.780Z,4.75
2023-04-02T02:20:35.500Z,5.18
2023-04-02T02:23:04.042Z,4.55
2023-04-02T02:25:33.009Z,4.85
2023-04-02T02:28:21.927Z,5.55
2023-04-02T02:30:51.215Z,6.40
2023-04-02T02:33:22.341Z,6.13
2023-04-02T02:35:52.861Z,6.85
2023-04-02T02:38:35.302Z,5.70
2023-04-02T02:41:05.529Z,6.30
2023-04-02T02:43:33.865Z,7.10
2023-04-02T02:46:03.298Z,5.25
2023-04-02T02:48:36.742Z,4.55
2023-04-02T02:51:08.551Z,5.03
2023-04-02T02:53:46.412Z,6.15
2023-04-02T02:56:13.853Z,5.45
2023-04-02T02:58:41.311Z,5.22
2023-04-02T03:01:08.509Z,5.28
2023-04-02T03:03:35.897Z,5.95
2023-04-02T03:06:08.508Z,6.18
2023-04-02T03:08:40.323Z,6.53
2023-04-02T03:11:13.800Z,5.53
2023-04-02T03:13:42.245Z,4.47
2023-04-02T03:16:23.803Z,5.00
2023-04-02T03:18:56.537Z,5.28
2023-04-02T03:21:23.854Z,4.60
2023-04-02T03:24:06.217Z,5.53
2023-04-02T03:26:41.352Z,5.68
2023-04-02T03:29:14.490Z,6.20
2023-04-02T03:31:49.497Z,5.45
2023-04-02T03:34:23.881Z,5.88
2023-04-02T03:36:56.792Z,4.97
2023-04-02T03:39:39.090Z,4.97
2023-04-02T03:42:18.462Z,3.88
2023-04-02T03:45:06.190Z,4.85
2023-04-02T03:50:19.028Z,5.82
2023-04-02T03:52:46.520Z,5.85
2023-04-02T03:55:18.830Z,5.18
2023-04-02T03:57:48.999Z,5.28
2023-04-02T04:00:21.061Z,3.88
2023-04-02T04:02:53.499Z,5.10
2023-04-02T04:05:23.707Z,5.20
2023-04-02T04:07:52.999Z,4.90
2023-04-02T04:10:29.954Z,5.00
2023-04-02T04:13:01.985Z,5.15
2023-04-02T04:15:34.249Z,4.78
2023-04-02T04:18:21.555Z,5.68
2023-04-02T04:20:57.215Z,5.80
2023-04-02T04:23:35.827Z,5.82
2023-04-02T04:26:21.117Z,5.10
2023-04-02T04:29:05.571Z,5.00
2023-04-02T04:31:38.970Z,5.60
2023-04-02T04:34:16.070Z,4.15
2023-04-02T04:36:47.984Z,5.07
2023-04-02T04:39:23.429Z,6.63
2023-04-02T04:41:51.637Z,4.15
2023-04-02T04:44:22.693Z,5.82
2023-04-02T04:47:10.371Z,4.43
2023-04-02T04:52:10.449Z,4.30
2023-04-02T04:54:38.735Z,3.60
2023-04-02T04:57:06.813Z,2.78
2023-04-02T04:59:43.479Z,2.83
2023-04-02T05:04:45.374Z,3.95
2023-04-02T05:07:16.638Z,4.00
2023-04-02T05:09:45.920Z,3.90
2023-04-02T05:12:31.724Z,4.07
2023-04-02T05:15:01.185Z,3.47
2023-04-02T05:17:31.193Z,4.53
2023-04-02T05:19:58.302Z,4.25
2023-04-02T05:22:30.003Z,3.83
2023-04-02T05:25:15.655Z,3.10
2023-04-02T05:27:48.266Z,3.22
2023-04-02T05:30:22.166Z,3.95
2023-04-02T05:33:09.905Z,2.60
2023-04-02T05:35:41.870Z,3.67
2023-04-02T05:38:09.122Z,3.10
2023-04-02T05:40:42.192Z,3.00
2023-04-02T05:43:15.754Z,2.22
2023-04-02T05:45:44.349Z,2.25
2023-04-02T05:48:19.318Z,2.47
2023-04-02T05:50:49.828Z,1.98
2023-04-02T05:53:37.289Z,2.33
2023-04-02T05:56:19.919Z,2.63
2023-04-02T05:58:49.467Z,2.78
2023-04-02T06:01:25.944Z,2.20
2023-04-02T06:03:53.094Z,2.25
2023-04-02T06:06:25.572Z,2.30
2023-04-02T06:09:00.982Z,2.28
2023-04-02T06:11:31.562Z,1.70
2023-04-02T06:13:58.890Z,2.63
2023-04-02T06:16:27.554Z,2.08
2023-04-02T06:18:55.761Z,1.65
2023-04-02T06:21:22.966Z,2.00
2023-04-02T06:23:57.514Z,1.40
2023-04-02T06:26:36.598Z,1.63
2023-04-02T06:29:13.243Z,1.38
2023-04-02T06:31:48.328Z,1.63
2023-04-02T06:34:20.880Z,1.48
2023-04-02T06:36:49.299Z,1.80
2023-04-02T06:39:19.545Z,2.00
2023-04-02T06:41:46.844Z,1.88
2023-04-02T06:44:19.332Z,2.03
2023-04-02T06:46:51.055Z,2.35
2023-04-02T06:49:24.913Z,2.00
2023-04-02T06:51:54.057Z,1.98
2023-04-02T06:54:21.572Z,1.98
2023-04-02T06:56:50.807Z,2.10
2023-04-02T07:02:04.150Z,2.35
2023-04-02T07:04:31.572Z,2.50
2023-04-02T07:06:58.794Z,2.40
2023-04-02T07:09:26.716Z,2.20
2023-04-02T07:11:53.871Z,3.65
2023-04-02T07:14:21.195Z,2.20
2023-04-02T07:16:48.412Z,1.98
2023-04-02T07:19:21.994Z,2.97
2023-04-02T07:22:08.948Z,2.65
2023-04-02T07:24:36.190Z,2.63
2023-04-02T07:27:03.308Z,2.55
2023-04-02T07:29:30.428Z,2.83
2023-04-02T07:31:57.582Z,2.65
2023-04-02T07:34:24.769Z,2.78
2023-04-02T07:36:52.749Z,3.03
2023-04-02T07:39:19.964Z,2.65
2023-04-02T07:41:57.200Z,2.50
2023-04-02T07:44:24.397Z,3.65
2023-04-02T07:46:51.583Z,2.90
2023-04-02T07:49:18.840Z,3.88
2023-04-02T07:51:46.496Z,3.08
2023-04-02T07:54:13.795Z,3.45
2023-04-02T07:56:40.941Z,2.20
2023-04-02T07:59:08.088Z,2.33
2023-04-02T08:01:35.576Z,3.50
2023-04-02T08:04:03.958Z,3.28
2023-04-02T08:06:31.548Z,4.20
2023-04-02T08:08:58.918Z,2.60
2023-04-02T08:11:26.231Z,3.38
2023-04-02T08:13:53.403Z,3.80
2023-04-02T08:16:20.626Z,2.50
2023-04-02T08:18:47.841Z,2.10
2023-04-02T08:21:16.495Z,3.70
2023-04-02T08:23:44.076Z,3.50
2023-04-02T08:26:11.231Z,2.45
2023-04-02T08:28:38.435Z,1.77
2023-04-02T08:31:05.571Z,2.75
2023-04-02T08:33:32.818Z,3.45
2023-04-02T08:36:00.255Z,3.13
2023-04-02T08:38:27.432Z,2.63
2023-04-02T08:41:00.647Z,4.00
2023-04-02T08:43:28.823Z,3.35
2023-04-02T08:46:02.632Z,3.35
2023-04-02T08:48:31.696Z,3.90
2023-04-02T08:50:58.992Z,3.53
2023-04-02T08:53:28.456Z,3.17
2023-04-02T08:56:18.994Z,3.17
2023-04-02T08:58:50.687Z,3.58
2023-04-02T09:01:17.849Z,3.20
2023-04-02T09:03:50.203Z,2.53
2023-04-02T09:06:19.184Z,2.95
2023-04-02T09:08:48.651Z,3.10
2023-04-02T09:11:21.827Z,2.47
2023-04-02T09:13:51.691Z,2.95
2023-04-02T09:16:22.764Z,2.60
2023-04-02T09:18:51.765Z,2.80
2023-04-02T09:21:30.838Z,3.17
2023-04-02T09:23:58.148Z,2.85
2023-04-02T09:26:27.396Z,3.05
2023-04-02T09:29:00.617Z,2.95
2023-04-02T09:31:32.182Z,3.15
2023-04-02T09:33:59.339Z,2.85
2023-04-02T09:36:35.677Z,2.47
2023-04-02T09:39:07.285Z,2.67
2023-04-02T09:41:37.071Z,2.58
2023-04-02T09:44:13.672Z,2.25
2023-04-02T09:47:00.270Z,2.58
2023-04-02T09:49:37.743Z,2.40
2023-04-02T09:52:17.258Z,2.78
2023-04-02T09:54:44.452Z,2.70
2023-04-02T09:57:27.107Z,2.30
2023-04-02T10:00:29.970Z,2.10
2023-04-02T10:03:08.338Z,2.55
2023-04-02T10:08:08.453Z,1.50
2023-04-02T10:10:44.192Z,1.98
2023-04-02T10:13:32.363Z,2.10
2023-04-02T10:16:02.540Z,1.70
2023-04-02T10:18:29.695Z,1.90
2023-04-02T10:20:58.123Z,1.77
2023-04-02T10:23:27.271Z,1.70
2023-04-02T10:28:28.349Z,1.45
2023-04-02T10:31:01.877Z,1.70
2023-04-02T10:33:33.266Z,1.40
2023-04-02T10:36:05.764Z,1.60
2023-04-02T10:38:38.738Z,1.25
2023-04-02T10:41:12.411Z,1.25
2023-04-02T10:44:03.631Z,1.50
2023-04-02T10:46:46.621Z,1.67
2023-04-02T10:49:22.208Z,1.73
2023-04-02T10:51:59.292Z,1.40
2023-04-02T10:54:31.362Z,1.50
2023-04-02T10:57:02.234Z,1.45
2023-04-02T10:59:32.871Z,1.52
2023-04-02T11:02:01.315Z,1.73
2023-04-02T11:04:31.586Z,1.70
2023-04-02T11:07:13.196Z,1.42
2023-04-02T11:09:43.374Z,1.67
2023-04-02T11:12:16.696Z,1.70
2023-04-02T11:14:43.836Z,1.70
2023-04-02T11:17:14.630Z,2.05
2023-04-02T11:19:41.811Z,1.20
2023-04-02T11:22:16.306Z,1.80
2023-04-02T11:28:25.204Z,1.63
2023-04-02T11:31:11.399Z,1.50
2023-04-02T11:33:43.655Z,1.65
2023-04-02T11:36:31.581Z,1.25
2023-04-02T11:39:07.341Z,1.60
2023-04-02T11:42:01.091Z,1.42
2023-04-02T11:44:28.493Z,1.58
2023-04-02T11:47:15.497Z,1.70
2023-04-02T11:52:39.571Z,1.90
2023-04-02T11:55:22.666Z,2.03
2023-04-02T11:57:59.137Z,1.80
2023-04-02T12:00:45.124Z,2.10
2023-04-02T12:03:20.366Z,1.38
2023-04-02T12:05:58.858Z,1.40
2023-04-02T12:08:37.796Z,1.67
2023-04-02T12:11:11.890Z,1.48
2023-04-02T12:13:42.376Z,1.50
2023-04-02T12:16:10.773Z,1.33
2023-04-02T12:18:44.058Z,1.48
2023-04-02T12:21:16.105Z,2.05
2023-04-02T12:23:45.718Z,1.75
2023-04-02T12:40:08.844Z,1.73
2023-04-02T12:42:36.950Z,1.20
2023-04-02T12:45:05.292Z,1.92
2023-04-02T12:47:32.440Z,1.70
2023-04-02T12:50:02.073Z,1.80
2023-04-02T12:52:30.331Z,1.80
2023-04-02T12:55:01.706Z,1.70
2023-04-02T12:57:31.726Z,2.53
2023-04-02T12:59:59.948Z,1.70
2023-04-02T13:02:28.744Z,1.52
2023-04-02T13:04:57.380Z,1.85
2023-04-02T13:07:25.816Z,2.00
2023-04-02T13:09:54.022Z,1.80
2023-04-02T13:12:23.951Z,1.67
2023-04-02T13:14:57.957Z,1.58
2023-04-02T13:17:38.133Z,2.05
2023-04-02T13:20:24.050Z,1.50
2023-04-02T13:22:51.290Z,2.00
2023-04-02T13:25:18.455Z,2.10
2023-04-02T13:27:45.870Z,2.05
2023-04-02T13:30:22.818Z,1.67
2023-04-02T13:32:50.381Z,1.95
2023-04-02T13:35:17.781Z,1.95
2023-04-02T13:37:45.093Z,3.03
2023-04-02T13:40:16.638Z,1.50
2023-04-02T13:42:44.445Z,1.63
2023-04-02T13:45:31.973Z,1.48
2023-04-02T13:48:01.179Z,1.70
2023-04-02T13:50:30.351Z,1.40
2023-04-02T13:52:58.316Z,1.95
2023-04-02T13:55:27.748Z,1.45
2023-04-02T13:57:56.257Z,1.65
2023-04-02T14:00:23.424Z,1.45
2023-04-02T14:02:53.094Z,1.73
2023-04-02T14:05:38.249Z,1.88
2023-04-02T14:08:12.227Z,1.33
2023-04-02T14:10:52.107Z,1.50
2023-04-02T14:13:19.479Z,1.20
2023-04-02T14:15:57.255Z,2.45
2023-04-02T14:18:29.380Z,1.52
2023-04-02T14:21:14.894Z,1.40
2023-04-02T14:23:45.005Z,2.13
2023-04-02T14:26:18.169Z,1.35
2023-04-02T14:31:31.874Z,1.70
2023-04-02T14:34:07.527Z,1.80
2023-04-02T14:36:57.147Z,1.50
2023-04-02T14:39:44.769Z,1.50
2023-04-02T14:42:13.768Z,1.65
2023-04-02T14:44:48.853Z,1.70
2023-04-02T14:47:25.727Z,1.80
2023-04-02T14:49:55.780Z,1.67
2023-04-02T14:52:24.557Z,1.33
2023-04-02T14:57:21.476Z,1.75
2023-04-02T14:59:51.664Z,2.05
2023-04-02T15:02:21.655Z,2.42
2023-04-02T15:05:11.599Z,2.05
2023-04-02T15:08:04.941Z,3.40
2023-04-02T15:13:00.724Z,1.80
2023-04-02T15:18:10.248Z,1.33
2023-04-02T15:20:44.488Z,1.58
2023-04-02T15:23:11.708Z,1.33
2023-04-02T15:25:48.133Z,3.47
2023-04-02T15:34:07.961Z,2.22
2023-04-02T15:36:46.593Z,2.03
2023-04-02T15:39:26.237Z,1.30
2023-04-02T15:42:03.252Z,1.58
2023-04-02T15:44:30.598Z,2.15
2023-04-02T15:47:00.917Z,2.47
2023-04-02T15:49:33.998Z,1.30
2023-04-02T15:52:21.875Z,1.50
2023-04-02T15:55:01.322Z,1.42
2023-04-02T15:57:29.225Z,1.70
2023-04-02T16:00:15.728Z,1.48
2023-04-02T16:02:46.640Z,0.90
2023-04-02T16:05:36.026Z,2.00
2023-04-02T16:08:10.604Z,1.60
2023-04-02T16:10:42.464Z,1.88
2023-04-02T16:13:22.559Z,1.40
2023-04-02T16:15:54.763Z,1.48
2023-04-02T16:18:28.517Z,2.65
2023-04-02T16:20:57.383Z,3.05
2023-04-02T16:23:32.043Z,3.13
2023-04-02T16:26:06.334Z,2.55
2023-04-02T16:28:47.330Z,4.43
2023-04-02T16:31:21.830Z,3.35
2023-04-02T16:34:02.524Z,1.50
2023-04-02T16:36:48.334Z,3.15
2023-04-02T16:39:21.470Z,1.48
2023-04-02T16:41:51.945Z,1.98
2023-04-02T16:44:18.988Z,1.88
2023-04-02T16:46:49.120Z,1.70
2023-04-02T16:49:38.359Z,1.33
2023-04-02T16:52:15.542Z,1.15
2023-04-02T16:54:47.490Z,2.00
2023-04-02T16:57:34.124Z,1.58
2023-04-02T17:00:11.008Z,1.42
2023-04-02T17:02:45.179Z,1.30
2023-04-02T17:05:31.135Z,1.75
2023-04-02T17:08:10.576Z,1.45
2023-04-02T17:10:43.959Z,2.75
2023-04-02T17:13:26.395Z,4.50
2023-04-02T17:16:23.101Z,1.55
2023-04-02T17:18:52.031Z,2.20
2023-04-02T17:23:56.618Z,1.80
2023-04-02T17:26:27.986Z,1.45
2023-04-02T17:28:55.605Z,2.30
2023-04-02T17:31:24.165Z,1.40
2023-04-02T17:33:51.507Z,1.80
2023-04-02T17:36:26.142Z,2.03
2023-04-02T17:39:05.299Z,1.48
2023-04-02T17:41:37.322Z,2.83
2023-04-02T17:44:04.423Z,1.73
2023-04-02T17:46:34.684Z,1.70
2023-04-02T17:49:10.584Z,2.55
2023-04-02T17:51:45.812Z,3.95
2023-04-02T17:54:25.715Z,1.80
2023-04-02T17:57:01.285Z,2.85
2023-04-02T17:59:28.476Z,3.00
2023-04-02T18:01:59.792Z,2.35
2023-04-02T18:04:37.959Z,2.20
2023-04-02T18:07:05.106Z,2.50
2023-04-02T18:09:35.696Z,2.35
2023-04-02T18:12:21.727Z,2.80
2023-04-02T18:14:56.184Z,2.72
2023-04-02T18:17:34.457Z,3.25
2023-04-02T18:23:20.949Z,2.40
2023-04-02T18:28:59.642Z,4.53
2023-04-02T18:31:36.071Z,5.93
2023-04-02T18:34:09.485Z,6.18
2023-04-02T18:36:39.973Z,3.60
2023-04-02T18:39:14.471Z,3.70
2023-04-02T18:41:48.796Z,3.60
2023-04-02T18:44:18.763Z,3.05
2023-04-02T18:46:56.611Z,3.40
2023-04-02T18:49:33.092Z,3.40
2023-04-02T18:52:01.928Z,4.00
2023-04-02T18:54:47.518Z,2.45
2023-04-02T18:57:24.552Z,2.80
2023-04-02T19:00:04.415Z,3.25
2023-04-02T19:02:35.638Z,2.40
2023-04-02T19:05:07.238Z,3.10
2023-04-02T19:07:37.062Z,4.13
2023-04-02T19:10:30.708Z,5.00
2023-04-02T19:12:58.009Z,4.90
2023-04-02T19:15:30.898Z,4.13
2023-04-02T19:18:10.994Z,4.40
2023-04-02T19:21:04.563Z,5.95
2023-04-02T19:26:03.332Z,8.48
2023-04-02T19:28:45.851Z,3.78
2023-04-02T19:31:31.581Z,3.35
2023-04-02T19:34:15.528Z,4.60
2023-04-02T19:36:55.350Z,3.50
2023-04-02T19:39:36.196Z,2.92
2023-04-02T19:42:13.055Z,2.75
2023-04-02T19:44:43.433Z,5.00
2023-04-02T19:47:11.114Z,5.20
2023-04-02T19:49:38.424Z,3.80
2023-04-02T19:52:05.919Z,3.03
2023-04-02T19:54:33.024Z,2.25
2023-04-02T19:57:00.689Z,3.42
2023-04-02T19:59:28.588Z,4.50
2023-04-02T20:01:55.911Z,4.78
2023-04-02T20:04:23.114Z,4.75
2023-04-02T20:06:50.561Z,4.60
2023-04-02T20:09:17.859Z,5.05
2023-04-02T20:11:45.521Z,2.72
2023-04-02T20:14:12.646Z,2.42
2023-04-02T20:16:39.910Z,2.92
2023-04-02T20:19:07.331Z,3.63
2023-04-02T20:21:38.524Z,2.65
2023-04-02T20:24:09.352Z,2.40
2023-04-02T20:26:36.938Z,2.00
2023-04-02T20:29:04.432Z,1.73
2023-04-02T20:31:31.719Z,1.80
2023-04-02T20:34:00.058Z,1.73
2023-04-02T20:36:27.458Z,2.25
2023-04-02T20:38:54.680Z,2.08
2023-04-02T20:41:22.062Z,1.65
2023-04-02T20:43:50.035Z,1.35
2023-04-02T20:46:17.741Z,1.50
2023-04-02T20:48:45.228Z,1.63
2023-04-02T20:51:14.172Z,1.60
2023-04-02T20:53:41.497Z,1.48
2023-04-02T20:56:10.161Z,1.35
2023-04-02T20:58:38.212Z,1.60
2023-04-02T21:01:09.247Z,1.60
2023-04-02T21:03:36.408Z,1.40
2023-04-02T21:06:04.103Z,1.30
2023-04-02T21:08:31.348Z,1.50
2023-04-02T21:11:02.828Z,1.02
2023-04-02T21:13:31.424Z,1.55
2023-04-02T21:15:59.049Z,1.00
2023-04-02T21:18:26.438Z,1.20
2023-04-02T21:21:04.352Z,1.45
2023-04-02T21:23:32.040Z,1.00
2023-04-02T21:26:00.250Z,1.27
2023-04-02T21:28:27.522Z,1.40
2023-04-02T21:31:02.585Z,0.95
2023-04-02T21:33:30.234Z,1.10
2023-04-02T21:35:57.734Z,1.40
2023-04-02T21:38:24.935Z,1.13
2023-04-02T21:40:52.173Z,1.40
2023-04-02T21:43:19.325Z,1.20
2023-04-02T21:45:46.636Z,0.60
2023-04-02T21:48:13.730Z,1.08
2023-04-02T21:50:40.912Z,1.00
2023-04-02T21:53:08.183Z,1.00
2023-04-02T21:55:35.309Z,0.90
2023-04-02T21:58:02.393Z,1.02
2023-04-02T22:00:29.471Z,1.10
2023-04-02T22:02:56.729Z,1.13
2023-04-02T22:05:24.111Z,1.25
2023-04-02T22:07:51.240Z,0.95
2023-04-02T22:10:18.378Z,1.20
2023-04-02T22:12:45.529Z,1.20
2023-04-02T22:15:12.861Z,1.00
2023-04-02T22:17:40.001Z,1.33
2023-04-02T22:20:07.467Z,0.88
2023-04-02T22:22:34.774Z,1.13
2023-04-02T22:25:03.020Z,0.98
2023-04-02T22:27:30.245Z,1.20
2023-04-02T22:29:57.395Z,0.95
2023-04-02T22:32:24.585Z,1.38
2023-04-02T22:34:52.003Z,1.10
2023-04-02T22:37:19.195Z,1.27
2023-04-02T22:39:46.332Z,1.20
2023-04-02T22:42:13.473Z,0.90
2023-04-02T22:44:40.545Z,0.98
2023-04-02T22:47:07.725Z,1.08
2023-04-02T22:49:34.866Z,1.33
2023-04-02T22:52:03.624Z,1.40
2023-04-02T22:54:30.940Z,1.10
2023-04-02T22:56:58.137Z,1.08
2023-04-02T22:59:25.909Z,1.52
2023-04-02T23:01:53.047Z,1.13
2023-04-02T23:04:20.781Z,1.20
2023-04-02T23:06:47.905Z,1.10
2023-04-02T23:09:15.288Z,1.15
2023-04-02T23:11:42.524Z,1.10
2023-04-02T23:14:10.339Z,1.10
2023-04-02T23:16:37.439Z,1.15
2023-04-02T23:19:06.041Z,1.65
2023-04-02T23:21:33.222Z,0.88
2023-04-02T23:24:00.731Z,1.20
2023-04-02T23:26:32.253Z,1.02
2023-04-02T23:29:00.341Z,1.30
2023-04-02T23:31:27.523Z,1.02
2023-04-02T23:33:54.724Z,0.93
2023-04-02T23:36:23.316Z,1.05
2023-04-02T23:38:55.099Z,1.20
2023-04-02T23:41:23.679Z,1.10
2023-04-02T23:43:51.238Z,1.27
2023-04-02T23:46:18.483Z,1.20
2023-04-02T23:48:46.671Z,1.25
2023-04-02T23:51:14.455Z,0.85
2023-04-02T23:53:43.140Z,1.13
2023-04-02T23:56:10.629Z,1.02
2023-04-02T23:58:38.158Z,0.95
